sensor_id;sensor_type;location;lat;lon;timestamp;temperature;humidity
68433;DHT22;55412;51.350;17.056;2023-04-25T00:00:00;9.90;73.80
68433;DHT22;55412;51.350;17.056;2023-04-25T00:02:26;9.90;74.00
68433;DHT22;55412;51.350;17.056;2023-04-25T00:04:53;9.90;74.00
68433;DHT22;55412;51.350;17.056;2023-04-25T00:07:25;9.90;74.10
68433;DHT22;55412;51.350;17.056;2023-04-25T00:09:51;9.90;73.90
68433;DHT22;55412;51.350;17.056;2023-04-25T00:12:17;9.80;74.00
68433;DHT22;55412;51.350;17.056;2023-04-25T00:14:43;9.80;73.60
68433;DHT22;55412;51.350;17.056;2023-04-25T00:17:11;9.80;73.80
68433;DHT22;55412;51.350;17.056;2023-04-25T00:19:37;9.80;73.90
68433;DHT22;55412;51.350;17.056;2023-04-25T00:22:03;9.70;73.70
68433;DHT22;55412;51.350;17.056;2023-04-25T00:24:31;9.70;74.00
68433;DHT22;55412;51.350;17.056;2023-04-25T00:26:57;9.70;73.80
68433;DHT22;55412;51.350;17.056;2023-04-25T00:29:23;9.70;74.40
68433;DHT22;55412;51.350;17.056;2023-04-25T00:31:49;9.60;74.70
68433;DHT22;55412;51.350;17.056;2023-04-25T00:34:15;9.60;74.90
68433;DHT22;55412;51.350;17.056;2023-04-25T00:36:41;9.60;74.70
68433;DHT22;55412;51.350;17.056;2023-04-25T00:39:07;9.70;74.50
68433;DHT22;55412;51.350;17.056;2023-04-25T00:41:33;9.60;75.00
68433;DHT22;55412;51.350;17.056;2023-04-25T00:44:00;9.60;75.00
68433;DHT22;55412;51.350;17.056;2023-04-25T00:46:27;9.60;74.30
68433;DHT22;55412;51.350;17.056;2023-04-25T00:48:53;9.60;74.30
68433;DHT22;55412;51.350;17.056;2023-04-25T00:51:22;9.60;74.10
68433;DHT22;55412;51.350;17.056;2023-04-25T00:53:50;9.60;74.50
68433;DHT22;55412;51.350;17.056;2023-04-25T00:56:16;9.60;74.20
68433;DHT22;55412;51.350;17.056;2023-04-25T00:58:42;9.60;74.30
68433;DHT22;55412;51.350;17.056;2023-04-25T01:01:09;9.60;74.50
68433;DHT22;55412;51.350;17.056;2023-04-25T01:03:38;9.50;74.80
68433;DHT22;55412;51.350;17.056;2023-04-25T01:06:09;9.50;74.60
68433;DHT22;55412;51.350;17.056;2023-04-25T01:08:37;9.50;75.20
68433;DHT22;55412;51.350;17.056;2023-04-25T01:11:04;9.50;75.20
68433;DHT22;55412;51.350;17.056;2023-04-25T01:13:31;9.50;75.40
68433;DHT22;55412;51.350;17.056;2023-04-25T01:16:01;9.50;75.10
68433;DHT22;55412;51.350;17.056;2023-04-25T01:18:28;9.50;75.20
68433;DHT22;55412;51.350;17.056;2023-04-25T01:20:54;9.40;75.10
68433;DHT22;55412;51.350;17.056;2023-04-25T01:23:22;9.40;75.10
68433;DHT22;55412;51.350;17.056;2023-04-25T01:25:49;9.40;75.10
68433;DHT22;55412;51.350;17.056;2023-04-25T01:28:16;9.40;75.30
68433;DHT22;55412;51.350;17.056;2023-04-25T01:30:43;9.40;75.40
68433;DHT22;55412;51.350;17.056;2023-04-25T01:33:09;9.40;75.00
68433;DHT22;55412;51.350;17.056;2023-04-25T01:35:35;9.40;75.30
68433;DHT22;55412;51.350;17.056;2023-04-25T01:38:01;9.40;75.40
68433;DHT22;55412;51.350;17.056;2023-04-25T01:40:28;9.40;75.40
68433;DHT22;55412;51.350;17.056;2023-04-25T01:42:54;9.40;75.40
68433;DHT22;55412;51.350;17.056;2023-04-25T01:45:20;9.40;75.20
68433;DHT22;55412;51.350;17.056;2023-04-25T01:47:46;9.40;75.20
68433;DHT22;55412;51.350;17.056;2023-04-25T01:50:18;9.40;75.30
68433;DHT22;55412;51.350;17.056;2023-04-25T01:52:45;9.40;75.40
68433;DHT22;55412;51.350;17.056;2023-04-25T01:55:11;9.30;75.30
68433;DHT22;55412;51.350;17.056;2023-04-25T01:57:38;9.30;74.90
68433;DHT22;55412;51.350;17.056;2023-04-25T02:00:07;9.30;75.00
68433;DHT22;55412;51.350;17.056;2023-04-25T02:02:35;9.20;75.40
68433;DHT22;55412;51.350;17.056;2023-04-25T02:05:01;9.20;75.00
68433;DHT22;55412;51.350;17.056;2023-04-25T02:07:27;9.20;75.20
68433;DHT22;55412;51.350;17.056;2023-04-25T02:09:53;9.20;75.20
68433;DHT22;55412;51.350;17.056;2023-04-25T02:12:19;9.20;75.50
68433;DHT22;55412;51.350;17.056;2023-04-25T02:14:45;9.20;75.30
68433;DHT22;55412;51.350;17.056;2023-04-25T02:17:11;9.20;75.60
68433;DHT22;55412;51.350;17.056;2023-04-25T02:19:38;9.10;75.00
68433;DHT22;55412;51.350;17.056;2023-04-25T02:22:04;9.10;75.30
68433;DHT22;55412;51.350;17.056;2023-04-25T02:24:30;9.10;75.50
68433;DHT22;55412;51.350;17.056;2023-04-25T02:26:57;9.10;75.30
68433;DHT22;55412;51.350;17.056;2023-04-25T02:29:23;9.10;75.30
68433;DHT22;55412;51.350;17.056;2023-04-25T02:31:49;9.10;75.40
68433;DHT22;55412;51.350;17.056;2023-04-25T02:34:15;9.10;75.30
68433;DHT22;55412;51.350;17.056;2023-04-25T02:36:41;9.10;75.40
68433;DHT22;55412;51.350;17.056;2023-04-25T02:39:07;9.00;75.40
68433;DHT22;55412;51.350;17.056;2023-04-25T02:41:33;9.00;75.40
68433;DHT22;55412;51.350;17.056;2023-04-25T02:43:59;9.00;75.00
68433;DHT22;55412;51.350;17.056;2023-04-25T02:46:25;9.00;75.30
68433;DHT22;55412;51.350;17.056;2023-04-25T02:48:51;8.90;75.40
68433;DHT22;55412;51.350;17.056;2023-04-25T02:51:17;8.90;75.50
68433;DHT22;55412;51.350;17.056;2023-04-25T02:53:44;8.90;75.60
68433;DHT22;55412;51.350;17.056;2023-04-25T02:56:10;8.90;75.80
68433;DHT22;55412;51.350;17.056;2023-04-25T02:58:36;8.90;75.80
68433;DHT22;55412;51.350;17.056;2023-04-25T03:01:02;8.90;76.00
68433;DHT22;55412;51.350;17.056;2023-04-25T03:03:28;8.80;76.00
68433;DHT22;55412;51.350;17.056;2023-04-25T03:05:54;8.80;76.00
68433;DHT22;55412;51.350;17.056;2023-04-25T03:08:20;8.80;75.70
68433;DHT22;55412;51.350;17.056;2023-04-25T03:10:46;8.80;75.80
68433;DHT22;55412;51.350;17.056;2023-04-25T03:13:13;8.80;75.70
68433;DHT22;55412;51.350;17.056;2023-04-25T03:15:39;8.80;75.70
68433;DHT22;55412;51.350;17.056;2023-04-25T03:18:05;8.70;75.80
68433;DHT22;55412;51.350;17.056;2023-04-25T03:20:31;8.70;75.70
68433;DHT22;55412;51.350;17.056;2023-04-25T03:22:57;8.70;75.90
68433;DHT22;55412;51.350;17.056;2023-04-25T03:25:23;8.70;75.90
68433;DHT22;55412;51.350;17.056;2023-04-25T03:27:49;8.70;76.00
68433;DHT22;55412;51.350;17.056;2023-04-25T03:30:15;8.70;76.00
68433;DHT22;55412;51.350;17.056;2023-04-25T03:32:41;8.60;76.00
68433;DHT22;55412;51.350;17.056;2023-04-25T03:35:07;8.60;75.90
68433;DHT22;55412;51.350;17.056;2023-04-25T03:37:34;8.60;75.80
68433;DHT22;55412;51.350;17.056;2023-04-25T03:40:00;8.60;75.90
68433;DHT22;55412;51.350;17.056;2023-04-25T03:42:26;8.60;75.80
68433;DHT22;55412;51.350;17.056;2023-04-25T03:44:52;8.60;75.90
68433;DHT22;55412;51.350;17.056;2023-04-25T03:47:18;8.60;76.00
68433;DHT22;55412;51.350;17.056;2023-04-25T03:49:44;8.60;75.90
68433;DHT22;55412;51.350;17.056;2023-04-25T03:52:10;8.60;75.90
68433;DHT22;55412;51.350;17.056;2023-04-25T03:54:36;8.60;76.10
68433;DHT22;55412;51.350;17.056;2023-04-25T03:57:02;8.60;76.10
68433;DHT22;55412;51.350;17.056;2023-04-25T03:59:28;8.50;75.90
68433;DHT22;55412;51.350;17.056;2023-04-25T04:01:54;8.50;76.00
68433;DHT22;55412;51.350;17.056;2023-04-25T04:04:20;8.50;76.10
68433;DHT22;55412;51.350;17.056;2023-04-25T04:06:46;8.50;76.10
68433;DHT22;55412;51.350;17.056;2023-04-25T04:09:12;8.50;75.90
68433;DHT22;55412;51.350;17.056;2023-04-25T04:11:39;8.50;76.10
68433;DHT22;55412;51.350;17.056;2023-04-25T04:14:06;8.50;76.00
68433;DHT22;55412;51.350;17.056;2023-04-25T04:16:32;8.50;76.10
68433;DHT22;55412;51.350;17.056;2023-04-25T04:18:58;8.50;75.90
68433;DHT22;55412;51.350;17.056;2023-04-25T04:21:24;8.50;76.30
68433;DHT22;55412;51.350;17.056;2023-04-25T04:23:52;8.50;76.30
68433;DHT22;55412;51.350;17.056;2023-04-25T04:26:18;8.60;76.40
68433;DHT22;55412;51.350;17.056;2023-04-25T04:28:44;8.60;76.10
68433;DHT22;55412;51.350;17.056;2023-04-25T04:31:10;8.70;75.90
68433;DHT22;55412;51.350;17.056;2023-04-25T04:33:37;8.70;75.70
68433;DHT22;55412;51.350;17.056;2023-04-25T04:36:03;8.70;76.10
68433;DHT22;55412;51.350;17.056;2023-04-25T04:38:30;8.80;75.60
68433;DHT22;55412;51.350;17.056;2023-04-25T04:40:56;8.80;75.50
68433;DHT22;55412;51.350;17.056;2023-04-25T04:43:22;8.80;75.70
68433;DHT22;55412;51.350;17.056;2023-04-25T04:45:49;8.80;75.80
68433;DHT22;55412;51.350;17.056;2023-04-25T04:48:17;8.90;75.70
68433;DHT22;55412;51.350;17.056;2023-04-25T04:50:43;8.90;75.40
68433;DHT22;55412;51.350;17.056;2023-04-25T04:53:11;8.90;74.90
68433;DHT22;55412;51.350;17.056;2023-04-25T04:55:37;8.90;75.50
68433;DHT22;55412;51.350;17.056;2023-04-25T04:58:03;9.00;75.40
68433;DHT22;55412;51.350;17.056;2023-04-25T05:00:29;9.00;75.00
68433;DHT22;55412;51.350;17.056;2023-04-25T05:02:56;9.10;74.70
68433;DHT22;55412;51.350;17.056;2023-04-25T05:05:22;9.20;74.50
68433;DHT22;55412;51.350;17.056;2023-04-25T05:07:48;9.30;74.20
68433;DHT22;55412;51.350;17.056;2023-04-25T05:10:14;9.30;73.50
68433;DHT22;55412;51.350;17.056;2023-04-25T05:12:40;9.40;73.80
68433;DHT22;55412;51.350;17.056;2023-04-25T05:15:07;9.40;73.70
68433;DHT22;55412;51.350;17.056;2023-04-25T05:17:33;9.50;73.60
68433;DHT22;55412;51.350;17.056;2023-04-25T05:19:59;9.60;73.00
68433;DHT22;55412;51.350;17.056;2023-04-25T05:22:25;9.70;72.40
68433;DHT22;55412;51.350;17.056;2023-04-25T05:24:51;9.70;72.40
68433;DHT22;55412;51.350;17.056;2023-04-25T05:27:18;9.80;72.90
68433;DHT22;55412;51.350;17.056;2023-04-25T05:29:45;9.90;72.30
68433;DHT22;55412;51.350;17.056;2023-04-25T05:32:11;10.00;71.80
68433;DHT22;55412;51.350;17.056;2023-04-25T05:34:37;10.00;71.60
68433;DHT22;55412;51.350;17.056;2023-04-25T05:37:05;10.00;71.20
68433;DHT22;55412;51.350;17.056;2023-04-25T05:39:31;10.10;71.20
68433;DHT22;55412;51.350;17.056;2023-04-25T05:41:57;10.10;71.50
68433;DHT22;55412;51.350;17.056;2023-04-25T05:44:23;10.10;70.90
68433;DHT22;55412;51.350;17.056;2023-04-25T05:46:49;10.20;71.10
68433;DHT22;55412;51.350;17.056;2023-04-25T05:49:15;10.20;70.50
68433;DHT22;55412;51.350;17.056;2023-04-25T05:51:41;10.30;70.00
68433;DHT22;55412;51.350;17.056;2023-04-25T05:54:07;10.30;70.50
68433;DHT22;55412;51.350;17.056;2023-04-25T05:56:33;10.30;69.90
68433;DHT22;55412;51.350;17.056;2023-04-25T05:58:59;10.30;70.20
68433;DHT22;55412;51.350;17.056;2023-04-25T06:01:25;10.30;69.40
68433;DHT22;55412;51.350;17.056;2023-04-25T06:03:51;10.30;68.90
68433;DHT22;55412;51.350;17.056;2023-04-25T06:06:18;10.30;68.80
68433;DHT22;55412;51.350;17.056;2023-04-25T06:08:44;10.30;68.10
68433;DHT22;55412;51.350;17.056;2023-04-25T06:11:11;10.30;69.30
68433;DHT22;55412;51.350;17.056;2023-04-25T06:13:37;10.30;69.10
68433;DHT22;55412;51.350;17.056;2023-04-25T06:16:03;10.40;68.90
68433;DHT22;55412;51.350;17.056;2023-04-25T06:18:30;10.40;68.50
68433;DHT22;55412;51.350;17.056;2023-04-25T06:20:56;10.40;69.60
68433;DHT22;55412;51.350;17.056;2023-04-25T06:23:22;10.50;69.00
68433;DHT22;55412;51.350;17.056;2023-04-25T06:25:48;10.60;69.90
68433;DHT22;55412;51.350;17.056;2023-04-25T06:28:14;10.80;69.50
68433;DHT22;55412;51.350;17.056;2023-04-25T06:30:40;10.90;68.50
68433;DHT22;55412;51.350;17.056;2023-04-25T06:33:06;11.10;67.20
68433;DHT22;55412;51.350;17.056;2023-04-25T06:35:34;11.20;67.70
68433;DHT22;55412;51.350;17.056;2023-04-25T06:38:00;11.40;66.60
68433;DHT22;55412;51.350;17.056;2023-04-25T06:40:26;11.50;65.90
68433;DHT22;55412;51.350;17.056;2023-04-25T06:42:52;11.70;66.10
68433;DHT22;55412;51.350;17.056;2023-04-25T06:45:18;11.90;65.10
68433;DHT22;55412;51.350;17.056;2023-04-25T06:47:44;12.10;65.00
68433;DHT22;55412;51.350;17.056;2023-04-25T06:50:10;12.40;65.40
68433;DHT22;55412;51.350;17.056;2023-04-25T06:52:36;12.70;63.70
68433;DHT22;55412;51.350;17.056;2023-04-25T06:55:02;13.00;60.90
68433;DHT22;55412;51.350;17.056;2023-04-25T06:57:30;13.20;60.10
68433;DHT22;55412;51.350;17.056;2023-04-25T06:59:56;13.50;58.20
68433;DHT22;55412;51.350;17.056;2023-04-25T07:02:22;13.70;57.50
68433;DHT22;55412;51.350;17.056;2023-04-25T07:04:48;13.90;56.50
68433;DHT22;55412;51.350;17.056;2023-04-25T07:07:14;14.10;54.80
68433;DHT22;55412;51.350;17.056;2023-04-25T07:09:40;14.30;55.40
68433;DHT22;55412;51.350;17.056;2023-04-25T07:12:06;14.50;53.10
68433;DHT22;55412;51.350;17.056;2023-04-25T07:14:32;14.70;53.50
68433;DHT22;55412;51.350;17.056;2023-04-25T07:16:58;14.90;53.20
68433;DHT22;55412;51.350;17.056;2023-04-25T07:19:24;15.20;52.00
68433;DHT22;55412;51.350;17.056;2023-04-25T07:21:52;15.50;52.50
68433;DHT22;55412;51.350;17.056;2023-04-25T07:24:18;15.70;51.00
68433;DHT22;55412;51.350;17.056;2023-04-25T07:26:44;15.80;51.50
68433;DHT22;55412;51.350;17.056;2023-04-25T07:29:11;15.90;50.80
68433;DHT22;55412;51.350;17.056;2023-04-25T07:31:37;16.10;50.70
68433;DHT22;55412;51.350;17.056;2023-04-25T07:34:03;16.10;48.80
68433;DHT22;55412;51.350;17.056;2023-04-25T07:36:29;16.20;50.20
68433;DHT22;55412;51.350;17.056;2023-04-25T07:38:56;16.40;49.70
68433;DHT22;55412;51.350;17.056;2023-04-25T07:41:22;16.60;49.20
68433;DHT22;55412;51.350;17.056;2023-04-25T07:43:48;16.80;48.40
68433;DHT22;55412;51.350;17.056;2023-04-25T07:46:14;16.90;47.50
68433;DHT22;55412;51.350;17.056;2023-04-25T07:48:40;16.90;48.50
68433;DHT22;55412;51.350;17.056;2023-04-25T07:51:06;16.90;47.90
68433;DHT22;55412;51.350;17.056;2023-04-25T07:53:33;16.80;47.50
68433;DHT22;55412;51.350;17.056;2023-04-25T07:56:00;16.60;47.40
68433;DHT22;55412;51.350;17.056;2023-04-25T07:58:26;16.30;47.60
68433;DHT22;55412;51.350;17.056;2023-04-25T08:00:52;16.10;48.50
68433;DHT22;55412;51.350;17.056;2023-04-25T08:03:18;15.80;49.00
68433;DHT22;55412;51.350;17.056;2023-04-25T08:05:44;15.60;48.50
68433;DHT22;55412;51.350;17.056;2023-04-25T08:08:11;15.40;48.90
68433;DHT22;55412;51.350;17.056;2023-04-25T08:10:37;15.20;49.80
68433;DHT22;55412;51.350;17.056;2023-04-25T08:13:03;15.10;50.60
68433;DHT22;55412;51.350;17.056;2023-04-25T08:15:29;15.00;51.50
68433;DHT22;55412;51.350;17.056;2023-04-25T08:17:55;15.00;51.10
68433;DHT22;55412;51.350;17.056;2023-04-25T08:20:21;14.90;51.60
68433;DHT22;55412;51.350;17.056;2023-04-25T08:22:47;14.90;51.50
68433;DHT22;55412;51.350;17.056;2023-04-25T08:25:14;14.90;50.60
68433;DHT22;55412;51.350;17.056;2023-04-25T08:27:40;14.80;50.60
68433;DHT22;55412;51.350;17.056;2023-04-25T08:30:07;14.70;51.40
68433;DHT22;55412;51.350;17.056;2023-04-25T08:32:34;14.50;51.40
68433;DHT22;55412;51.350;17.056;2023-04-25T08:35:03;14.20;52.90
68433;DHT22;55412;51.350;17.056;2023-04-25T08:37:29;14.10;52.40
68433;DHT22;55412;51.350;17.056;2023-04-25T08:39:56;13.90;52.50
68433;DHT22;55412;51.350;17.056;2023-04-25T08:42:23;13.80;52.30
68433;DHT22;55412;51.350;17.056;2023-04-25T08:44:50;13.70;52.50
68433;DHT22;55412;51.350;17.056;2023-04-25T08:47:22;13.70;53.40
68433;DHT22;55412;51.350;17.056;2023-04-25T08:49:49;13.70;52.80
68433;DHT22;55412;51.350;17.056;2023-04-25T08:52:22;13.70;52.50
68433;DHT22;55412;51.350;17.056;2023-04-25T08:54:49;13.60;52.30
68433;DHT22;55412;51.350;17.056;2023-04-25T08:57:17;13.50;53.20
68433;DHT22;55412;51.350;17.056;2023-04-25T08:59:44;13.40;52.50
68433;DHT22;55412;51.350;17.056;2023-04-25T09:02:12;13.30;52.20
68433;DHT22;55412;51.350;17.056;2023-04-25T09:04:44;13.20;53.00
68433;DHT22;55412;51.350;17.056;2023-04-25T09:07:10;13.10;53.60
68433;DHT22;55412;51.350;17.056;2023-04-25T09:09:36;13.00;54.10
68433;DHT22;55412;51.350;17.056;2023-04-25T09:12:03;13.00;54.60
68433;DHT22;55412;51.350;17.056;2023-04-25T09:14:29;12.90;54.30
68433;DHT22;55412;51.350;17.056;2023-04-25T09:19:31;12.80;56.40
68433;DHT22;55412;51.350;17.056;2023-04-25T09:22:02;12.80;56.80
68433;DHT22;55412;51.350;17.056;2023-04-25T09:27:11;13.00;51.90
68433;DHT22;55412;51.350;17.056;2023-04-25T09:29:39;13.00;52.80
68433;DHT22;55412;51.350;17.056;2023-04-25T09:32:19;13.00;51.90
68433;DHT22;55412;51.350;17.056;2023-04-25T09:34:48;12.90;52.80
68433;DHT22;55412;51.350;17.056;2023-04-25T09:37:21;12.90;54.40
68433;DHT22;55412;51.350;17.056;2023-04-25T09:39:49;12.80;53.70
68433;DHT22;55412;51.350;17.056;2023-04-25T09:42:17;12.70;54.90
68433;DHT22;55412;51.350;17.056;2023-04-25T09:44:46;12.60;52.90
68433;DHT22;55412;51.350;17.056;2023-04-25T09:47:14;12.60;53.70
68433;DHT22;55412;51.350;17.056;2023-04-25T09:49:42;12.60;54.10
68433;DHT22;55412;51.350;17.056;2023-04-25T09:52:13;12.70;51.90
68433;DHT22;55412;51.350;17.056;2023-04-25T09:54:40;12.70;51.10
68433;DHT22;55412;51.350;17.056;2023-04-25T09:57:21;12.70;50.50
68433;DHT22;55412;51.350;17.056;2023-04-25T09:59:53;12.70;52.90
68433;DHT22;55412;51.350;17.056;2023-04-25T10:02:27;12.80;51.90
68433;DHT22;55412;51.350;17.056;2023-04-25T10:04:54;12.80;52.30
68433;DHT22;55412;51.350;17.056;2023-04-25T10:07:24;12.90;52.70
68433;DHT22;55412;51.350;17.056;2023-04-25T10:10:01;13.00;52.40
68433;DHT22;55412;51.350;17.056;2023-04-25T10:12:29;13.00;50.70
68433;DHT22;55412;51.350;17.056;2023-04-25T10:14:59;13.00;52.00
68433;DHT22;55412;51.350;17.056;2023-04-25T10:17:27;13.00;50.60
68433;DHT22;55412;51.350;17.056;2023-04-25T10:19:54;13.10;50.50
68433;DHT22;55412;51.350;17.056;2023-04-25T10:22:34;13.10;49.70
68433;DHT22;55412;51.350;17.056;2023-04-25T10:25:02;13.20;49.60
68433;DHT22;55412;51.350;17.056;2023-04-25T10:27:32;13.30;50.30
68433;DHT22;55412;51.350;17.056;2023-04-25T10:30:09;13.40;50.20
68433;DHT22;55412;51.350;17.056;2023-04-25T10:32:38;13.40;48.40
68433;DHT22;55412;51.350;17.056;2023-04-25T10:35:15;13.30;47.60
68433;DHT22;55412;51.350;17.056;2023-04-25T10:38:10;13.30;48.20
68433;DHT22;55412;51.350;17.056;2023-04-25T10:40:36;13.20;48.70
68433;DHT22;55412;51.350;17.056;2023-04-25T10:45:56;13.10;51.20
68433;DHT22;55412;51.350;17.056;2023-04-25T10:48:25;13.20;50.70
68433;DHT22;55412;51.350;17.056;2023-04-25T10:51:11;13.20;52.00
68433;DHT22;55412;51.350;17.056;2023-04-25T10:53:41;13.30;51.40
68433;DHT22;55412;51.350;17.056;2023-04-25T10:56:27;13.30;51.20
68433;DHT22;55412;51.350;17.056;2023-04-25T11:01:51;13.40;51.00
68433;DHT22;55412;51.350;17.056;2023-04-25T11:04:29;13.40;51.60
68433;DHT22;55412;51.350;17.056;2023-04-25T11:09:40;13.30;50.90
68433;DHT22;55412;51.350;17.056;2023-04-25T11:12:08;13.30;50.60
68433;DHT22;55412;51.350;17.056;2023-04-25T11:14:37;13.20;51.10
68433;DHT22;55412;51.350;17.056;2023-04-25T11:17:03;13.20;52.20
68433;DHT22;55412;51.350;17.056;2023-04-25T11:19:29;13.30;52.00
68433;DHT22;55412;51.350;17.056;2023-04-25T11:22:00;13.30;51.40
68433;DHT22;55412;51.350;17.056;2023-04-25T11:24:31;13.40;52.10
68433;DHT22;55412;51.350;17.056;2023-04-25T11:27:00;13.50;51.00
68433;DHT22;55412;51.350;17.056;2023-04-25T11:29:32;13.50;49.40
68433;DHT22;55412;51.350;17.056;2023-04-25T11:31:59;13.60;48.90
68433;DHT22;55412;51.350;17.056;2023-04-25T11:34:27;13.60;49.90
68433;DHT22;55412;51.350;17.056;2023-04-25T11:36:56;13.60;49.20
68433;DHT22;55412;51.350;17.056;2023-04-25T11:39:24;13.60;49.50
68433;DHT22;55412;51.350;17.056;2023-04-25T11:41:50;13.70;49.90
68433;DHT22;55412;51.350;17.056;2023-04-25T11:44:18;13.70;49.90
68433;DHT22;55412;51.350;17.056;2023-04-25T11:46:45;13.80;50.10
68433;DHT22;55412;51.350;17.056;2023-04-25T11:49:12;13.80;50.60
68433;DHT22;55412;51.350;17.056;2023-04-25T11:51:45;13.80;49.80
68433;DHT22;55412;51.350;17.056;2023-04-25T11:54:12;13.80;49.30
68433;DHT22;55412;51.350;17.056;2023-04-25T11:56:45;13.90;49.00
68433;DHT22;55412;51.350;17.056;2023-04-25T11:59:12;13.80;48.70
68433;DHT22;55412;51.350;17.056;2023-04-25T12:01:41;13.90;50.40
68433;DHT22;55412;51.350;17.056;2023-04-25T12:04:23;13.90;49.60
68433;DHT22;55412;51.350;17.056;2023-04-25T12:06:52;13.90;49.70
68433;DHT22;55412;51.350;17.056;2023-04-25T12:09:29;13.90;49.60
68433;DHT22;55412;51.350;17.056;2023-04-25T12:11:57;13.90;49.20
68433;DHT22;55412;51.350;17.056;2023-04-25T12:14:33;13.90;48.90
68433;DHT22;55412;51.350;17.056;2023-04-25T12:17:01;13.90;49.30
68433;DHT22;55412;51.350;17.056;2023-04-25T12:19:36;13.80;48.60
68433;DHT22;55412;51.350;17.056;2023-04-25T12:22:22;13.70;48.80
68433;DHT22;55412;51.350;17.056;2023-04-25T12:24:49;13.60;48.70
68433;DHT22;55412;51.350;17.056;2023-04-25T12:27:16;13.60;50.70
68433;DHT22;55412;51.350;17.056;2023-04-25T12:29:54;13.60;49.30
68433;DHT22;55412;51.350;17.056;2023-04-25T12:32:21;13.60;50.50
68433;DHT22;55412;51.350;17.056;2023-04-25T12:34:47;13.60;51.40
68433;DHT22;55412;51.350;17.056;2023-04-25T12:37:13;13.60;51.30
68433;DHT22;55412;51.350;17.056;2023-04-25T12:39:40;13.70;51.60
68433;DHT22;55412;51.350;17.056;2023-04-25T12:42:06;13.70;49.90
68433;DHT22;55412;51.350;17.056;2023-04-25T12:44:34;13.70;49.40
68433;DHT22;55412;51.350;17.056;2023-04-25T12:47:00;13.60;50.30
68433;DHT22;55412;51.350;17.056;2023-04-25T12:49:26;13.60;50.20
68433;DHT22;55412;51.350;17.056;2023-04-25T12:51:52;13.50;50.50
68433;DHT22;55412;51.350;17.056;2023-04-25T12:54:18;13.40;49.80
68433;DHT22;55412;51.350;17.056;2023-04-25T12:56:44;13.30;50.10
68433;DHT22;55412;51.350;17.056;2023-04-25T12:59:10;13.20;50.50
68433;DHT22;55412;51.350;17.056;2023-04-25T13:01:36;13.10;51.50
68433;DHT22;55412;51.350;17.056;2023-04-25T13:04:03;13.10;50.80
68433;DHT22;55412;51.350;17.056;2023-04-25T13:06:29;13.00;51.00
68433;DHT22;55412;51.350;17.056;2023-04-25T13:08:57;13.00;51.80
68433;DHT22;55412;51.350;17.056;2023-04-25T13:11:23;13.00;52.00
68433;DHT22;55412;51.350;17.056;2023-04-25T13:13:50;13.00;51.70
68433;DHT22;55412;51.350;17.056;2023-04-25T13:16:16;13.10;51.00
68433;DHT22;55412;51.350;17.056;2023-04-25T13:18:42;13.00;51.00
68433;DHT22;55412;51.350;17.056;2023-04-25T13:21:09;13.00;51.60
68433;DHT22;55412;51.350;17.056;2023-04-25T13:23:38;13.00;51.40
68433;DHT22;55412;51.350;17.056;2023-04-25T13:26:06;12.90;50.90
68433;DHT22;55412;51.350;17.056;2023-04-25T13:28:32;12.80;52.00
68433;DHT22;55412;51.350;17.056;2023-04-25T13:30:58;12.70;51.60
68433;DHT22;55412;51.350;17.056;2023-04-25T13:33:24;12.60;51.70
68433;DHT22;55412;51.350;17.056;2023-04-25T13:35:51;12.60;51.90
68433;DHT22;55412;51.350;17.056;2023-04-25T13:38:22;12.50;52.30
68433;DHT22;55412;51.350;17.056;2023-04-25T13:40:49;12.50;52.60
68433;DHT22;55412;51.350;17.056;2023-04-25T13:43:19;12.60;53.00
68433;DHT22;55412;51.350;17.056;2023-04-25T13:45:47;12.60;53.00
68433;DHT22;55412;51.350;17.056;2023-04-25T13:48:14;12.70;53.40
68433;DHT22;55412;51.350;17.056;2023-04-25T13:50:40;12.80;53.10
68433;DHT22;55412;51.350;17.056;2023-04-25T13:53:06;12.90;52.10
68433;DHT22;55412;51.350;17.056;2023-04-25T13:55:34;13.00;51.10
68433;DHT22;55412;51.350;17.056;2023-04-25T13:58:04;13.10;51.60
68433;DHT22;55412;51.350;17.056;2023-04-25T14:00:35;13.20;50.30
68433;DHT22;55412;51.350;17.056;2023-04-25T14:03:04;13.20;50.10
68433;DHT22;55412;51.350;17.056;2023-04-25T14:05:33;13.20;50.90
68433;DHT22;55412;51.350;17.056;2023-04-25T14:08:04;13.20;50.50
68433;DHT22;55412;51.350;17.056;2023-04-25T14:10:31;13.10;50.30
68433;DHT22;55412;51.350;17.056;2023-04-25T14:12:57;13.10;50.70
68433;DHT22;55412;51.350;17.056;2023-04-25T14:15:24;13.10;51.40
68433;DHT22;55412;51.350;17.056;2023-04-25T14:17:51;13.00;52.50
68433;DHT22;55412;51.350;17.056;2023-04-25T14:20:17;13.10;52.40
68433;DHT22;55412;51.350;17.056;2023-04-25T14:22:46;13.00;51.70
68433;DHT22;55412;51.350;17.056;2023-04-25T14:25:12;13.00;52.10
68433;DHT22;55412;51.350;17.056;2023-04-25T14:27:38;12.90;52.10
68433;DHT22;55412;51.350;17.056;2023-04-25T14:30:04;12.90;52.10
68433;DHT22;55412;51.350;17.056;2023-04-25T14:32:31;12.80;53.10
68433;DHT22;55412;51.350;17.056;2023-04-25T14:34:58;12.80;53.50
68433;DHT22;55412;51.350;17.056;2023-04-25T14:37:24;12.70;53.50
68433;DHT22;55412;51.350;17.056;2023-04-25T14:39:50;12.70;53.70
68433;DHT22;55412;51.350;17.056;2023-04-25T14:42:16;12.70;54.70
68433;DHT22;55412;51.350;17.056;2023-04-25T14:44:42;12.70;54.30
68433;DHT22;55412;51.350;17.056;2023-04-25T14:47:08;12.70;53.50
68433;DHT22;55412;51.350;17.056;2023-04-25T14:49:34;12.60;54.20
68433;DHT22;55412;51.350;17.056;2023-04-25T14:52:00;12.60;53.80
68433;DHT22;55412;51.350;17.056;2023-04-25T14:54:26;12.50;54.10
68433;DHT22;55412;51.350;17.056;2023-04-25T14:56:52;12.50;54.90
68433;DHT22;55412;51.350;17.056;2023-04-25T14:59:18;12.40;55.20
68433;DHT22;55412;51.350;17.056;2023-04-25T15:01:46;12.30;55.30
68433;DHT22;55412;51.350;17.056;2023-04-25T15:04:12;12.30;55.50
68433;DHT22;55412;51.350;17.056;2023-04-25T15:06:39;12.30;55.70
68433;DHT22;55412;51.350;17.056;2023-04-25T15:09:05;12.30;55.30
68433;DHT22;55412;51.350;17.056;2023-04-25T15:11:31;12.20;54.80
68433;DHT22;55412;51.350;17.056;2023-04-25T15:13:57;12.30;54.10
68433;DHT22;55412;51.350;17.056;2023-04-25T15:16:23;12.30;53.40
68433;DHT22;55412;51.350;17.056;2023-04-25T15:18:49;12.30;54.70
68433;DHT22;55412;51.350;17.056;2023-04-25T15:21:15;12.30;54.50
68433;DHT22;55412;51.350;17.056;2023-04-25T15:23:41;12.20;56.10
68433;DHT22;55412;51.350;17.056;2023-04-25T15:26:08;12.20;57.80
68433;DHT22;55412;51.350;17.056;2023-04-25T15:28:34;12.10;58.30
68433;DHT22;55412;51.350;17.056;2023-04-25T15:31:00;12.00;57.60
68433;DHT22;55412;51.350;17.056;2023-04-25T15:33:26;11.90;57.60
68433;DHT22;55412;51.350;17.056;2023-04-25T15:35:52;11.80;57.90